Time;durP1;ratioP1;P1;durP2;ratioP2;P2;SDS_P1;SDS_P2;PMS_P1;PMS_P2;Temp;Humidity;BMP_temperature;BMP_pressure;BME280_temperature;BME280_humidity;BME280_pressure;Samples;Min_cycle;Max_cycle;Signal;HPM_P1;HPM_P2
2021/08/17 00:02:01;;;;;;;10.70;6.18;;;;;;;;;;5033993;28;20360;-70
2021/08/17 00:04:27;;;;;;;10.35;6.25;;;;;;;;;;5033369;28;20462;-70
2021/08/17 00:06:53;;;;;;;13.07;6.80;;;;;;;;;;5026189;28;20068;-71
2021/08/17 00:09:19;;;;;;;12.32;6.68;;;;;;;;;;5031617;28;20109;-70
2021/08/17 00:11:45;;;;;;;13.68;7.10;;;;;;;;;;5033569;28;20030;-70
2021/08/17 00:14:11;;;;;;;12.32;6.57;;;;;;;;;;5032898;28;20049;-70
2021/08/17 00:16:37;;;;;;;11.18;6.80;;;;;;;;;;5032459;28;20024;-71
2021/08/17 00:19:03;;;;;;;13.80;7.45;;;;;;;;;;5033366;28;20109;-71
2021/08/17 00:21:29;;;;;;;17.42;8.32;;;;;;;;;;5032608;28;20084;-71
2021/08/17 00:23:59;;;;;;;14.57;7.20;;;;;;;;;;5031795;28;20017;-70
2021/08/17 00:26:25;;;;;;;15.20;7.72;;;;;;;;;;5032334;28;20026;-70
2021/08/17 00:28:51;;;;;;;11.50;7.05;;;;;;;;;;5033694;28;20030;-70
2021/08/17 00:31:17;;;;;;;14.15;7.78;;;;;;;;;;5032724;28;20056;-70
2021/08/17 00:33:43;;;;;;;15.43;8.63;;;;;;;;;;5032770;28;20026;-69
2021/08/17 00:36:09;;;;;;;14.57;8.68;;;;;;;;;;5032979;28;20104;-70
2021/08/17 00:38:36;;;;;;;16.38;8.43;;;;;;;;;;5032097;28;20032;-70
2021/08/17 00:41:02;;;;;;;12.57;7.28;;;;;;;;;;5032802;28;20060;-69
2021/08/17 00:43:28;;;;;;;16.20;7.75;;;;;;;;;;5032033;28;20390;-70
2021/08/17 00:45:54;;;;;;;15.40;8.15;;;;;;;;;;5031686;28;20025;-69
2021/08/17 00:48:20;;;;;;;15.52;7.95;;;;;;;;;;5032258;28;20032;-69
2021/08/17 00:50:47;;;;;;;14.07;7.20;;;;;;;;;;5033054;28;20048;-69
2021/08/17 00:53:13;;;;;;;13.05;6.95;;;;;;;;;;5032757;28;20035;-70
2021/08/17 00:55:40;;;;;;;11.75;7.15;;;;;;;;;;5031681;28;20723;-70
2021/08/17 00:58:06;;;;;;;12.30;7.10;;;;;;;;;;5032523;28;20030;-70
2021/08/17 01:00:32;;;;;;;13.57;7.15;;;;;;;;;;5031519;28;20034;-70
2021/08/17 01:02:58;;;;;;;13.43;7.53;;;;;;;;;;5031662;28;20022;-70
2021/08/17 01:05:30;;;;;;;10.80;6.75;;;;;;;;;;5031724;28;20459;-70
2021/08/17 01:07:57;;;;;;;11.23;7.32;;;;;;;;;;5032329;28;20079;-70
2021/08/17 01:10:23;;;;;;;11.93;7.22;;;;;;;;;;5031595;28;20033;-70
2021/08/17 01:12:49;;;;;;;13.15;6.60;;;;;;;;;;5032433;28;20080;-70
2021/08/17 01:15:15;;;;;;;9.65;5.93;;;;;;;;;;5032202;28;20022;-69
2021/08/17 01:17:45;;;;;;;9.85;6.30;;;;;;;;;;5031497;28;20104;-69
2021/08/17 01:20:15;;;;;;;10.85;6.22;;;;;;;;;;5031859;28;20029;-70
2021/08/17 01:22:45;;;;;;;11.52;6.65;;;;;;;;;;5031507;28;20049;-69
2021/08/17 01:25:12;;;;;;;12.30;6.78;;;;;;;;;;5031973;28;20030;-69
2021/08/17 01:27:42;;;;;;;11.73;6.40;;;;;;;;;;5031515;28;20052;-69
2021/08/17 01:30:09;;;;;;;12.02;7.28;;;;;;;;;;5032008;28;20033;-69
2021/08/17 01:32:35;;;;;;;10.02;6.40;;;;;;;;;;5031376;28;20044;-69
2021/08/17 01:35:01;;;;;;;9.82;6.32;;;;;;;;;;5031922;28;20086;-70
2021/08/17 01:37:27;;;;;;;9.52;5.85;;;;;;;;;;5030972;28;20026;-69
2021/08/17 01:39:59;;;;;;;10.70;5.70;;;;;;;;;;5031659;28;20057;-68
2021/08/17 01:42:26;;;;;;;11.35;6.35;;;;;;;;;;5031006;28;20032;-68
2021/08/17 01:44:52;;;;;;;11.32;6.18;;;;;;;;;;5031929;28;20021;-68
2021/08/17 01:47:18;;;;;;;16.70;6.72;;;;;;;;;;5031800;28;20025;-68
2021/08/17 01:49:44;;;;;;;12.68;6.53;;;;;;;;;;5031201;28;20036;-68
2021/08/17 01:52:10;;;;;;;11.57;6.32;;;;;;;;;;5031807;28;20430;-69
2021/08/17 01:54:36;;;;;;;11.63;6.28;;;;;;;;;;5031026;28;20105;-68
2021/08/17 01:57:02;;;;;;;12.48;6.80;;;;;;;;;;5033403;28;20481;-68
2021/08/17 01:59:30;;;;;;;11.30;6.05;;;;;;;;;;5035112;28;20032;-68
2021/08/17 02:01:57;;;;;;;9.23;5.85;;;;;;;;;;5034673;28;20347;-69
2021/08/17 02:04:25;;;;;;;13.10;7.00;;;;;;;;;;5034990;28;20026;-69
2021/08/17 02:06:51;;;;;;;10.07;5.60;;;;;;;;;;5035515;28;20071;-69
2021/08/17 02:09:17;;;;;;;12.65;6.00;;;;;;;;;;5036000;28;20030;-69
2021/08/17 02:11:43;;;;;;;11.60;5.72;;;;;;;;;;5034677;28;20036;-69
2021/08/17 02:14:10;;;;;;;9.85;5.85;;;;;;;;;;5035430;28;20028;-69
2021/08/17 02:16:36;;;;;;;13.05;5.88;;;;;;;;;;5034788;28;20055;-69
2021/08/17 02:19:02;;;;;;;10.32;6.38;;;;;;;;;;5035360;28;20017;-69
2021/08/17 02:21:28;;;;;;;11.25;5.45;;;;;;;;;;5034684;28;20037;-69
2021/08/17 02:23:54;;;;;;;12.75;6.05;;;;;;;;;;5035604;28;20378;-69
2021/08/17 02:26:20;;;;;;;11.02;6.20;;;;;;;;;;5035323;28;20396;-69
2021/08/17 02:28:46;;;;;;;11.93;6.50;;;;;;;;;;5034843;28;20025;-69
2021/08/17 02:31:12;;;;;;;13.50;6.63;;;;;;;;;;5035078;28;20037;-69
2021/08/17 02:33:38;;;;;;;10.07;6.68;;;;;;;;;;5034380;28;20025;-69
2021/08/17 02:36:04;;;;;;;11.98;5.85;;;;;;;;;;5035189;28;20080;-69
2021/08/17 02:38:30;;;;;;;11.30;6.00;;;;;;;;;;5034212;28;20080;-69
2021/08/17 02:40:56;;;;;;;10.05;6.00;;;;;;;;;;5035212;28;20395;-68
2021/08/17 02:43:25;;;;;;;14.40;6.85;;;;;;;;;;5034382;28;20033;-68
2021/08/17 02:45:52;;;;;;;11.90;6.47;;;;;;;;;;5034015;28;20383;-68
2021/08/17 02:48:18;;;;;;;12.55;6.70;;;;;;;;;;5034930;28;20013;-68
2021/08/17 02:50:44;;;;;;;13.73;6.07;;;;;;;;;;5033970;28;20573;-68
2021/08/17 02:53:10;;;;;;;14.02;6.43;;;;;;;;;;5034684;28;20057;-68
2021/08/17 02:55:36;;;;;;;11.52;6.18;;;;;;;;;;5034121;28;20520;-68
2021/08/17 02:58:06;;;;;;;11.70;6.65;;;;;;;;;;5034426;28;20057;-68
2021/08/17 03:00:32;;;;;;;12.50;6.27;;;;;;;;;;5034037;28;20053;-68
2021/08/17 03:02:58;;;;;;;10.32;5.95;;;;;;;;;;5034681;28;20043;-68
2021/08/17 03:05:24;;;;;;;13.65;6.80;;;;;;;;;;5034032;28;20024;-68
2021/08/17 03:07:54;;;;;;;11.40;6.05;;;;;;;;;;5032921;28;20018;-68
2021/08/17 03:10:20;;;;;;;13.40;6.30;;;;;;;;;;5021295;28;20117;-68
2021/08/17 03:12:47;;;;;;;12.55;7.03;;;;;;;;;;5014022;28;20033;-68
2021/08/17 03:15:13;;;;;;;12.68;5.78;;;;;;;;;;5014861;28;20030;-68
2021/08/17 03:17:39;;;;;;;13.25;6.40;;;;;;;;;;5013849;28;20033;-69
2021/08/17 03:20:06;;;;;;;10.43;6.47;;;;;;;;;;5014236;28;20405;-69
2021/08/17 03:22:32;;;;;;;11.48;7.05;;;;;;;;;;5013591;28;20084;-68
2021/08/17 03:24:58;;;;;;;11.40;6.32;;;;;;;;;;5014641;28;20022;-68
2021/08/17 03:27:25;;;;;;;11.77;6.90;;;;;;;;;;5013731;28;20388;-68
2021/08/17 03:29:51;;;;;;;11.65;6.05;;;;;;;;;;5014359;28;20057;-69
2021/08/17 03:32:17;;;;;;;11.13;5.82;;;;;;;;;;5014323;28;20056;-69
2021/08/17 03:34:43;;;;;;;14.57;5.63;;;;;;;;;;5013422;28;20018;-68
2021/08/17 03:37:09;;;;;;;10.75;5.80;;;;;;;;;;5020097;28;20026;-69
2021/08/17 03:39:35;;;;;;;10.13;6.03;;;;;;;;;;5032813;28;20053;-68
2021/08/17 03:42:01;;;;;;;12.77;6.00;;;;;;;;;;5033858;28;20025;-69
2021/08/17 03:44:27;;;;;;;12.20;6.22;;;;;;;;;;5032962;28;20029;-69
2021/08/17 03:46:53;;;;;;;10.48;6.13;;;;;;;;;;5033797;28;20367;-69
2021/08/17 03:49:19;;;;;;;13.60;6.18;;;;;;;;;;5033900;28;20026;-72
2021/08/17 03:51:45;;;;;;;9.18;5.85;;;;;;;;;;5031887;28;20017;-69
2021/08/17 03:54:11;;;;;;;10.65;5.90;;;;;;;;;;5033508;28;20475;-69
2021/08/17 03:56:37;;;;;;;10.68;6.10;;;;;;;;;;5033061;28;20059;-68
2021/08/17 03:59:03;;;;;;;10.10;5.60;;;;;;;;;;5033229;28;20025;-68
2021/08/17 04:01:29;;;;;;;11.18;6.07;;;;;;;;;;5032471;28;20048;-69
2021/08/17 04:03:55;;;;;;;11.18;6.38;;;;;;;;;;5033646;28;20041;-69
2021/08/17 04:06:21;;;;;;;11.27;6.00;;;;;;;;;;5033224;28;20018;-68
2021/08/17 04:08:48;;;;;;;12.98;6.18;;;;;;;;;;5032076;28;20351;-68
2021/08/17 04:11:14;;;;;;;10.95;6.05;;;;;;;;;;5014368;28;20037;-69
2021/08/17 04:13:40;;;;;;;14.35;6.38;;;;;;;;;;5032713;28;20084;-68
2021/08/17 04:16:07;;;;;;;11.98;5.93;;;;;;;;;;5033227;28;20022;-69
2021/08/17 04:18:33;;;;;;;9.10;5.60;;;;;;;;;;5032119;28;20083;-69
2021/08/17 04:20:59;;;;;;;11.30;5.82;;;;;;;;;;5033020;28;20030;-69
2021/08/17 04:23:25;;;;;;;10.00;5.80;;;;;;;;;;5033224;28;20490;-69
2021/08/17 04:25:51;;;;;;;10.05;5.55;;;;;;;;;;5032870;28;20029;-69
2021/08/17 04:28:17;;;;;;;10.38;5.47;;;;;;;;;;5032839;28;20467;-69
2021/08/17 04:30:43;;;;;;;10.43;5.50;;;;;;;;;;5032173;28;20033;-69
2021/08/17 04:33:09;;;;;;;8.98;5.00;;;;;;;;;;5033095;28;20028;-68
2021/08/17 04:35:35;;;;;;;12.23;5.53;;;;;;;;;;5032306;28;20029;-69
2021/08/17 04:38:01;;;;;;;10.50;5.72;;;;;;;;;;5032436;28;20383;-69
2021/08/17 04:40:27;;;;;;;10.10;5.05;;;;;;;;;;5032220;28;20049;-69
2021/08/17 04:42:53;;;;;;;10.48;5.18;;;;;;;;;;5031729;28;20034;-69
2021/08/17 04:45:20;;;;;;;10.18;5.72;;;;;;;;;;5032488;28;20022;-69
2021/08/17 04:47:46;;;;;;;12.00;6.78;;;;;;;;;;5031989;28;20108;-69
2021/08/17 04:50:13;;;;;;;9.45;6.10;;;;;;;;;;5032745;28;20033;-68
2021/08/17 04:52:39;;;;;;;11.15;5.68;;;;;;;;;;5031847;28;20095;-69
2021/08/17 04:55:05;;;;;;;12.88;6.22;;;;;;;;;;5032358;28;20040;-68
2021/08/17 04:57:31;;;;;;;11.40;5.97;;;;;;;;;;5031593;28;20072;-68
2021/08/17 04:59:57;;;;;;;11.85;5.53;;;;;;;;;;5032084;28;20479;-68
2021/08/17 05:02:23;;;;;;;10.00;5.78;;;;;;;;;;5032643;28;20033;-68
2021/08/17 05:04:49;;;;;;;9.30;5.20;;;;;;;;;;5031543;28;20128;-68
2021/08/17 05:07:15;;;;;;;9.88;5.72;;;;;;;;;;5032421;28;20407;-68
2021/08/17 05:09:41;;;;;;;10.80;5.97;;;;;;;;;;5023605;28;20025;-68
2021/08/17 05:12:07;;;;;;;9.55;4.72;;;;;;;;;;5015606;28;20533;-69
2021/08/17 05:14:33;;;;;;;13.98;5.82;;;;;;;;;;5031544;28;20022;-68
2021/08/17 05:16:59;;;;;;;13.88;7.53;;;;;;;;;;5031796;28;20048;-68
2021/08/17 05:19:25;;;;;;;13.60;6.65;;;;;;;;;;5032279;28;20474;-69
2021/08/17 05:21:53;;;;;;;10.98;5.63;;;;;;;;;;5031598;28;20498;-68
2021/08/17 05:24:19;;;;;;;12.38;6.47;;;;;;;;;;5032255;28;20490;-68
2021/08/17 05:26:45;;;;;;;11.05;5.75;;;;;;;;;;5031401;28;20025;-69
2021/08/17 05:29:11;;;;;;;9.18;5.57;;;;;;;;;;5031775;28;20025;-68
2021/08/17 05:31:37;;;;;;;10.25;5.82;;;;;;;;;;5029128;28;20057;-68
2021/08/17 05:34:03;;;;;;;8.13;5.60;;;;;;;;;;5032034;28;20104;-68
2021/08/17 05:36:29;;;;;;;9.75;5.65;;;;;;;;;;5031444;28;20152;-68
2021/08/17 05:38:55;;;;;;;8.52;5.30;;;;;;;;;;5031234;28;20486;-68
2021/08/17 05:41:21;;;;;;;10.57;5.95;;;;;;;;;;5032201;28;20140;-68
2021/08/17 05:43:47;;;;;;;8.02;4.97;;;;;;;;;;5030691;28;20180;-68
2021/08/17 05:46:13;;;;;;;8.38;5.18;;;;;;;;;;5031466;28;20112;-69
2021/08/17 05:48:39;;;;;;;7.80;5.45;;;;;;;;;;5030945;28;20122;-68
2021/08/17 05:51:05;;;;;;;11.77;5.20;;;;;;;;;;5031713;28;20033;-69
2021/08/17 05:53:31;;;;;;;9.10;5.20;;;;;;;;;;5031090;28;20064;-68
2021/08/17 05:55:57;;;;;;;8.93;5.03;;;;;;;;;;5031782;28;20103;-69
2021/08/17 05:58:23;;;;;;;10.05;5.57;;;;;;;;;;5032176;28;20026;-68
2021/08/17 06:00:49;;;;;;;9.68;4.97;;;;;;;;;;5030624;28;20029;-71
2021/08/17 06:03:16;;;;;;;7.88;5.47;;;;;;;;;;5032062;28;20056;-73
2021/08/17 06:05:41;;;;;;;12.38;6.07;;;;;;;;;;5030381;28;20056;-73
2021/08/17 06:08:08;;;;;;;11.18;5.22;;;;;;;;;;5031652;28;20021;-73
2021/08/17 06:10:34;;;;;;;10.13;4.97;;;;;;;;;;5015243;28;20029;-73
2021/08/17 06:13:00;;;;;;;10.85;4.82;;;;;;;;;;5022270;28;20371;-72
2021/08/17 06:15:26;;;;;;;9.95;4.95;;;;;;;;;;5031417;28;20021;-74
2021/08/17 06:17:52;;;;;;;7.95;4.40;;;;;;;;;;5030911;28;20589;-70
2021/08/17 06:20:18;;;;;;;10.38;4.97;;;;;;;;;;5031436;28;20029;-69
2021/08/17 06:22:44;;;;;;;8.55;4.85;;;;;;;;;;5029939;28;20021;-69
2021/08/17 06:25:11;;;;;;;8.23;4.93;;;;;;;;;;5031143;28;20101;-71
2021/08/17 06:27:37;;;;;;;10.15;5.18;;;;;;;;;;5030860;28;20029;-69
2021/08/17 06:30:05;;;;;;;8.32;4.68;;;;;;;;;;5031466;28;20103;-69
2021/08/17 06:32:31;;;;;;;7.68;4.82;;;;;;;;;;5031038;28;20418;-68
2021/08/17 06:34:57;;;;;;;7.97;4.82;;;;;;;;;;5030831;28;20382;-71
2021/08/17 06:37:23;;;;;;;7.25;4.38;;;;;;;;;;5031527;28;20029;-70
2021/08/17 06:39:49;;;;;;;8.82;4.75;;;;;;;;;;5030227;28;20053;-68
2021/08/17 06:42:15;;;;;;;9.93;4.88;;;;;;;;;;5032067;28;20025;-70
2021/08/17 06:44:41;;;;;;;10.45;4.72;;;;;;;;;;5034204;28;20022;-71
2021/08/17 06:47:07;;;;;;;9.85;4.97;;;;;;;;;;5035146;28;20025;-71
2021/08/17 06:49:33;;;;;;;7.43;4.80;;;;;;;;;;5034288;28;20112;-71
2021/08/17 06:51:59;;;;;;;11.63;5.53;;;;;;;;;;5034796;28;20021;-69
2021/08/17 06:54:25;;;;;;;6.97;4.88;;;;;;;;;;5035313;28;20029;-68
2021/08/17 06:56:51;;;;;;;7.43;5.25;;;;;;;;;;5033992;28;20079;-70
2021/08/17 06:59:17;;;;;;;9.13;5.30;;;;;;;;;;5034447;28;20026;-70
2021/08/17 07:01:43;;;;;;;8.80;5.18;;;;;;;;;;5033898;28;20036;-69
2021/08/17 07:04:09;;;;;;;11.20;5.50;;;;;;;;;;5034680;28;20128;-70
2021/08/17 07:06:36;;;;;;;14.90;5.43;;;;;;;;;;5033899;28;20494;-69
2021/08/17 07:09:03;;;;;;;9.38;5.22;;;;;;;;;;5032038;28;20293;-69
2021/08/17 07:11:30;;;;;;;12.70;5.82;;;;;;;;;;5014720;28;20472;-69
2021/08/17 07:13:56;;;;;;;11.10;6.18;;;;;;;;;;5014045;28;20132;-69
2021/08/17 07:16:22;;;;;;;10.43;5.88;;;;;;;;;;5014584;28;20487;-69
2021/08/17 07:18:48;;;;;;;9.98;5.38;;;;;;;;;;5013766;28;20537;-68
2021/08/17 07:21:14;;;;;;;11.07;5.97;;;;;;;;;;5014537;28;20033;-69
2021/08/17 07:23:40;;;;;;;9.00;5.78;;;;;;;;;;5031691;28;20034;-69
2021/08/17 07:26:07;;;;;;;8.80;5.95;;;;;;;;;;5034112;28;20494;-70
2021/08/17 07:28:33;;;;;;;8.98;5.10;;;;;;;;;;5033366;28;20112;-69
2021/08/17 07:30:59;;;;;;;9.30;5.68;;;;;;;;;;5034447;28;20026;-70
2021/08/17 07:33:25;;;;;;;8.73;5.22;;;;;;;;;;5033965;28;20025;-69
2021/08/17 07:35:51;;;;;;;12.80;5.90;;;;;;;;;;5033593;28;20121;-69
2021/08/17 07:38:17;;;;;;;8.23;5.32;;;;;;;;;;5034286;28;20053;-68
2021/08/17 07:40:43;;;;;;;8.52;5.80;;;;;;;;;;5033090;28;20124;-69
2021/08/17 07:43:09;;;;;;;10.10;5.82;;;;;;;;;;5034141;28;20033;-70
2021/08/17 07:45:35;;;;;;;9.13;5.25;;;;;;;;;;5033345;28;20025;-69
2021/08/17 07:48:01;;;;;;;8.52;5.78;;;;;;;;;;5033758;28;20573;-69
2021/08/17 07:50:27;;;;;;;9.63;5.40;;;;;;;;;;5033818;28;20034;-69
2021/08/17 07:52:54;;;;;;;8.75;5.20;;;;;;;;;;5033051;28;20032;-69
2021/08/17 07:55:20;;;;;;;8.60;5.30;;;;;;;;;;5033221;28;20422;-69
2021/08/17 07:57:46;;;;;;;11.00;6.22;;;;;;;;;;5032729;28;20026;-71
2021/08/17 08:00:13;;;;;;;8.23;5.32;;;;;;;;;;5033679;28;20044;-71
2021/08/17 08:02:39;;;;;;;10.15;5.30;;;;;;;;;;5032815;28;20051;-71
2021/08/17 08:05:06;;;;;;;8.48;4.93;;;;;;;;;;5033428;28;20033;-70
2021/08/17 08:07:33;;;;;;;8.13;4.55;;;;;;;;;;5033397;28;20038;-69
2021/08/17 08:09:59;;;;;;;9.25;5.82;;;;;;;;;;5022241;28;20026;-69
2021/08/17 08:12:25;;;;;;;11.60;5.45;;;;;;;;;;5013683;28;20101;-70
2021/08/17 08:14:51;;;;;;;8.75;5.55;;;;;;;;;;5012749;28;20021;-69
2021/08/17 08:17:17;;;;;;;9.68;5.05;;;;;;;;;;5013071;28;20498;-69
2021/08/17 08:19:43;;;;;;;6.07;4.45;;;;;;;;;;5012091;28;20030;-69
2021/08/17 08:22:09;;;;;;;9.95;5.22;;;;;;;;;;5013360;28;20408;-70
2021/08/17 08:24:35;;;;;;;10.77;5.38;;;;;;;;;;5014192;28;20022;-70
2021/08/17 08:27:01;;;;;;;7.47;4.88;;;;;;;;;;5031162;28;20022;-70
2021/08/17 08:29:28;;;;;;;6.70;4.45;;;;;;;;;;5034446;28;20032;-69
2021/08/17 08:31:54;;;;;;;7.20;4.88;;;;;;;;;;5032250;28;20030;-70
2021/08/17 08:34:20;;;;;;;7.07;4.72;;;;;;;;;;5032609;28;20030;-69
2021/08/17 08:36:46;;;;;;;9.10;5.15;;;;;;;;;;5031602;28;20014;-70
2021/08/17 08:39:12;;;;;;;10.60;5.20;;;;;;;;;;5032340;28;20053;-71
2021/08/17 08:41:39;;;;;;;6.32;4.60;;;;;;;;;;5032061;28;20380;-69
2021/08/17 08:44:05;;;;;;;8.63;5.45;;;;;;;;;;5032695;28;20029;-69
2021/08/17 08:46:31;;;;;;;9.25;5.45;;;;;;;;;;5032374;28;20044;-69
2021/08/17 08:48:57;;;;;;;9.23;5.03;;;;;;;;;;5031500;28;20025;-70
2021/08/17 08:51:23;;;;;;;8.25;5.00;;;;;;;;;;5032294;28;20025;-70
2021/08/17 08:53:49;;;;;;;6.90;5.00;;;;;;;;;;5030726;28;20101;-71
2021/08/17 08:56:16;;;;;;;7.50;5.57;;;;;;;;;;5032498;28;20060;-72
2021/08/17 08:58:42;;;;;;;8.90;5.60;;;;;;;;;;5031366;28;20075;-80
2021/08/17 09:01:12;;;;;;;11.57;6.05;;;;;;;;;;5032581;28;20030;-69
2021/08/17 09:03:45;;;;;;;10.55;5.85;;;;;;;;;;5030577;28;20414;-71
2021/08/17 09:06:30;;;;;;;8.43;5.28;;;;;;;;;;5030421;28;20427;-69
2021/08/17 09:09:09;;;;;;;8.93;5.78;;;;;;;;;;5029415;28;20025;-70
2021/08/17 09:11:36;;;;;;;9.18;5.55;;;;;;;;;;5012659;28;20113;-69
2021/08/17 09:14:19;;;;;;;9.70;5.65;;;;;;;;;;5011914;28;20021;-69
2021/08/17 09:16:46;;;;;;;10.30;5.78;;;;;;;;;;5011734;28;20125;-69
2021/08/17 09:19:23;;;;;;;8.88;5.30;;;;;;;;;;5012082;28;20125;-69
2021/08/17 09:21:49;;;;;;;7.45;4.95;;;;;;;;;;5011181;28;20570;-70
2021/08/17 09:24:20;;;;;;;7.68;5.15;;;;;;;;;;5012280;28;20029;-69
2021/08/17 09:26:47;;;;;;;9.23;5.72;;;;;;;;;;5011600;28;20022;-68
2021/08/17 09:29:21;;;;;;;8.63;5.80;;;;;;;;;;5012351;28;20034;-68
2021/08/17 09:31:47;;;;;;;8.10;5.47;;;;;;;;;;5011682;28;20046;-69
2021/08/17 09:34:14;;;;;;;7.95;5.22;;;;;;;;;;5012273;28;20014;-71
2021/08/17 09:36:41;;;;;;;10.65;5.10;;;;;;;;;;5011188;28;20026;-70
2021/08/17 09:39:08;;;;;;;6.63;4.80;;;;;;;;;;5012176;28;20029;-70
2021/08/17 09:41:34;;;;;;;9.88;5.10;;;;;;;;;;5012107;28;20475;-73
2021/08/17 09:44:02;;;;;;;8.70;4.90;;;;;;;;;;5011046;28;20030;-72
2021/08/17 09:46:29;;;;;;;9.13;4.85;;;;;;;;;;5012231;28;20030;-71
2021/08/17 09:48:56;;;;;;;6.25;4.63;;;;;;;;;;5011223;28;20022;-71
2021/08/17 09:51:35;;;;;;;5.80;4.07;;;;;;;;;;5012030;28;20029;-71
2021/08/17 09:54:11;;;;;;;9.23;4.22;;;;;;;;;;5011241;28;20030;-71
2021/08/17 09:56:37;;;;;;;8.80;4.78;;;;;;;;;;5011731;28;20022;-71
2021/08/17 09:59:05;;;;;;;6.32;4.07;;;;;;;;;;5011783;28;20026;-71
2021/08/17 10:01:31;;;;;;;5.70;4.22;;;;;;;;;;5011879;28;20038;-71
2021/08/17 10:03:59;;;;;;;5.90;4.30;;;;;;;;;;5011069;28;20029;-71
2021/08/17 10:06:26;;;;;;;7.85;4.60;;;;;;;;;;5011803;28;20034;-71
2021/08/17 10:08:52;;;;;;;6.68;4.32;;;;;;;;;;5011875;28;20022;-71
2021/08/17 10:11:19;;;;;;;6.57;4.32;;;;;;;;;;5031722;28;20033;-71
2021/08/17 10:13:45;;;;;;;7.70;5.10;;;;;;;;;;5030818;28;20471;-72
2021/08/17 10:16:16;;;;;;;6.13;4.22;;;;;;;;;;5031695;28;20034;-72
2021/08/17 10:18:44;;;;;;;8.57;4.05;;;;;;;;;;5033762;28;20037;-71
2021/08/17 10:21:10;;;;;;;5.20;3.60;;;;;;;;;;5035453;28;20136;-71
2021/08/17 10:23:40;;;;;;;5.43;3.80;;;;;;;;;;5035388;28;20036;-71
2021/08/17 10:26:06;;;;;;;6.85;4.55;;;;;;;;;;5035520;28;20104;-71
2021/08/17 10:28:36;;;;;;;6.20;4.28;;;;;;;;;;5035330;28;20295;-71
2021/08/17 10:31:14;;;;;;;4.82;4.03;;;;;;;;;;5034812;28;20239;-71
2021/08/17 10:33:42;;;;;;;6.35;4.07;;;;;;;;;;5035044;28;20079;-71
2021/08/17 10:36:08;;;;;;;8.50;4.47;;;;;;;;;;5035413;28;20021;-71
2021/08/17 10:38:35;;;;;;;6.75;4.18;;;;;;;;;;5035144;28;20033;-71
2021/08/17 10:41:03;;;;;;;9.40;4.07;;;;;;;;;;5034594;28;20059;-71
2021/08/17 10:43:32;;;;;;;6.57;4.38;;;;;;;;;;5035189;28;20025;-71
2021/08/17 10:46:03;;;;;;;6.95;4.40;;;;;;;;;;5034189;28;20593;-71
2021/08/17 10:48:50;;;;;;;6.72;5.05;;;;;;;;;;5035059;28;20025;-71
2021/08/17 10:51:19;;;;;;;6.75;4.53;;;;;;;;;;5035130;28;20029;-71
2021/08/17 10:53:49;;;;;;;7.20;4.78;;;;;;;;;;5033951;28;20026;-71
2021/08/17 10:56:17;;;;;;;7.50;4.70;;;;;;;;;;5034771;28;20382;-71
2021/08/17 10:58:44;;;;;;;6.75;4.45;;;;;;;;;;5034100;28;20084;-72
2021/08/17 11:01:10;;;;;;;5.70;4.60;;;;;;;;;;5035019;28;20041;-71
2021/08/17 11:03:40;;;;;;;6.93;4.70;;;;;;;;;;5034829;28;20097;-71
2021/08/17 11:06:07;;;;;;;7.30;4.50;;;;;;;;;;5034554;28;20071;-71
2021/08/17 11:08:33;;;;;;;7.20;4.53;;;;;;;;;;5034677;28;20108;-71
2021/08/17 11:11:00;;;;;;;5.93;4.50;;;;;;;;;;5015530;28;20592;-71
2021/08/17 11:13:26;;;;;;;6.35;4.80;;;20.40;61.20;;;;;;5014967;28;20033;-71
2021/08/17 11:16:11;;;;;;;5.10;4.00;;;20.40;61.60;;;;;;5013840;28;20061;-71
2021/08/17 11:18:59;;;;;;;6.00;4.25;;;20.60;61.60;;;;;;5014849;28;20382;-71
2021/08/17 11:21:34;;;;;;;6.32;3.95;;;20.70;57.40;;;;;;5014411;28;20121;-71
2021/08/17 11:24:18;;;;;;;5.13;3.97;;;20.60;57.30;;;;;;5013699;28;20079;-72
2021/08/17 11:26:47;;;;;;;8.25;4.53;;;20.40;56.20;;;;;;5013943;28;20022;-71
2021/08/17 11:29:34;;;;;;;4.97;3.80;;;20.10;59.60;;;;;;5013661;28;20022;-71
2021/08/17 11:32:03;;;;;;;4.57;3.70;;;20.00;59.70;;;;;;5013913;28;20037;-71
2021/08/17 11:34:34;;;;;;;7.50;4.13;;;20.10;59.20;;;;;;5014363;28;20431;-71
2021/08/17 11:37:21;;;;;;;5.55;3.78;;;20.30;57.70;;;;;;5013847;28;20113;-71
2021/08/17 11:39:54;;;;;;;4.25;3.25;;;20.30;59.60;;;;;;5012970;28;20046;-71
2021/08/17 11:42:22;;;;;;;5.28;3.55;;;20.40;56.30;;;;;;5014264;28;20129;-71
2021/08/17 11:45:08;;;;;;;5.60;3.78;;;20.60;57.20;;;;;;5013393;28;20030;-71
2021/08/17 11:47:34;;;;;;;5.47;3.10;;;20.70;55.60;;;;;;5014262;28;20022;-72
2021/08/17 11:50:04;;;;;;;3.80;3.05;;;21.00;54.20;;;;;;5012979;28;20475;-72
2021/08/17 11:52:41;;;;;;;5.57;2.80;;;21.20;52.10;;;;;;5014275;28;20113;-72
2021/08/17 11:55:15;;;;;;;7.43;3.00;;;21.30;52.30;;;;;;5013500;28;20084;-72
2021/08/17 11:57:45;;;;;;;3.92;3.05;;;21.40;52.30;;;;;;5013691;28;20026;-71
2021/08/17 12:00:19;;;;;;;4.82;3.15;;;21.30;52.40;;;;;;5012797;28;20117;-71
2021/08/17 12:02:50;;;;;;;4.53;3.20;;;21.20;53.30;;;;;;5013093;28;20121;-71
2021/08/17 12:05:18;;;;;;;4.57;3.05;;;21.30;54.30;;;;;;5013940;28;20026;-72
2021/08/17 12:07:46;;;;;;;5.15;2.92;;;21.40;52.30;;;;;;5013077;28;20489;-71
2021/08/17 12:10:13;;;;;;;4.93;3.45;;;21.40;53.00;;;;;;5013729;28;20468;-71
2021/08/17 12:13:07;;;;;;;3.47;2.80;;;21.50;53.40;;;;;;5013731;28;20061;-71
2021/08/17 12:15:48;;;;;;;7.78;3.70;;;21.90;54.10;;;;;;5013180;28;20037;-71
2021/08/17 12:18:16;;;;;;;4.50;3.30;;;22.20;52.10;;;;;;5013929;28;20470;-71
2021/08/17 12:20:58;;;;;;;5.70;3.25;;;22.50;53.10;;;;;;5013217;28;20081;-72
2021/08/17 12:23:32;;;;;;;4.70;3.38;;;22.80;50.80;;;;;;5013718;28;20032;-72
2021/08/17 12:26:18;;;;;;;3.17;2.70;;;22.80;49.70;;;;;;5012670;28;20049;-71
2021/08/17 12:28:47;;;;;;;5.53;3.40;;;23.10;48.40;;;;;;5012973;28;20022;-71
2021/08/17 12:31:19;;;;;;;4.68;3.72;;;23.20;48.20;;;;;;5013442;28;20033;-72
2021/08/17 12:34:05;;;;;;;5.63;3.55;;;23.10;49.00;;;;;;5012716;28;20030;-72
2021/08/17 12:36:40;;;;;;;4.95;3.50;;;23.30;48.40;;;;;;5013373;28;20049;-72
2021/08/17 12:39:09;;;;;;;5.07;3.63;;;23.40;48.20;;;;;;5012185;28;20112;-72
2021/08/17 12:41:37;;;;;;;6.30;3.60;;;23.50;49.20;;;;;;5012705;28;20492;-72
2021/08/17 12:44:23;;;;;;;4.93;3.95;;;23.70;47.10;;;;;;5012378;28;20706;-72
2021/08/17 12:47:04;;;;;;;5.07;3.70;;;23.80;48.20;;;;;;5012214;28;20026;-71
2021/08/17 12:49:52;;;;;;;4.15;3.28;;;23.70;48.00;;;;;;5013129;28;20125;-70
2021/08/17 12:52:18;;;;;;;5.20;4.10;;;23.80;48.40;;;;;;5013025;28;20026;-71
2021/08/17 12:54:43;;;;;;;6.28;4.15;;;24.00;47.90;;;;;;5012335;28;20021;-70
2021/08/17 12:57:09;;;;;;;7.35;4.45;;;24.40;47.50;;;;;;5011852;28;20030;-70
2021/08/17 12:59:36;;;;;;;4.93;3.67;;;24.50;47.00;;;;;;5012582;28;20049;-70
2021/08/17 13:02:01;;;;;;;5.28;4.10;;;24.40;47.40;;;;;;5011974;28;20424;-70
2021/08/17 13:04:27;;;;;;;5.10;4.40;;;24.50;46.40;;;;;;5012327;28;20072;-71
2021/08/17 13:06:53;;;;;;;5.97;3.60;;;24.20;47.30;;;;;;5011847;28;20033;-72
2021/08/17 13:09:18;;;;;;;5.80;4.10;;;24.20;49.70;;;;;;5016941;28;20048;-69
2021/08/17 13:11:44;;;;;;;6.05;4.53;;;24.40;48.30;;;;;;5031710;28;20081;-71
2021/08/17 13:14:09;;;;;;;5.68;3.83;;;24.70;48.10;;;;;;5032003;28;20051;-71
2021/08/17 13:16:35;;;;;;;4.70;3.65;;;24.70;47.10;;;;;;5032600;28;20026;-71
2021/08/17 13:19:01;;;;;;;6.07;4.10;;;24.50;47.00;;;;;;5031615;28;20017;-71
2021/08/17 13:21:26;;;;;;;7.90;4.43;;;24.20;48.30;;;;;;5032195;28;20043;-71
2021/08/17 13:23:52;;;;;;;5.07;4.28;;;23.80;49.30;;;;;;5031017;28;20068;-71
2021/08/17 13:26:17;;;;;;;5.43;4.60;;;23.40;48.80;;;;;;5031839;28;20455;-71
2021/08/17 13:28:43;;;;;;;6.40;4.68;;;23.00;51.20;;;;;;5031682;28;20025;-71
2021/08/17 13:31:09;;;;;;;5.22;4.05;;;22.90;51.30;;;;;;5031336;28;20033;-71
2021/08/17 13:33:35;;;;;;;4.85;4.28;;;22.90;51.30;;;;;;5032089;28;20455;-71
2021/08/17 13:36:01;;;;;;;6.72;4.43;;;22.90;51.50;;;;;;5030997;28;20102;-71
2021/08/17 13:38:26;;;;;;;6.47;4.20;;;22.80;51.60;;;;;;5046910;28;20526;-71
2021/08/17 13:40:52;;;;;;;6.30;3.85;;;22.80;50.70;;;;;;5030139;28;20057;-71
2021/08/17 13:43:18;;;;;;;6.63;4.10;;;22.60;52.10;;;;;;5031995;28;20047;-70
2021/08/17 13:45:44;;;;;;;5.90;4.78;;;22.50;52.60;;;;;;5031979;28;20026;-71
2021/08/17 13:48:09;;;;;;;6.60;4.25;;;22.30;52.50;;;;;;5031007;28;20024;-71
2021/08/17 13:50:35;;;;;;;8.10;4.20;;;22.30;53.30;;;;;;5031517;28;20553;-70
2021/08/17 13:53:01;;;;;;;6.88;5.18;;;22.10;52.80;;;;;;5030305;28;20061;-70
2021/08/17 13:55:26;;;;;;;6.72;4.10;;;22.10;52.40;;;;;;5031405;28;20025;-70
2021/08/17 13:57:52;;;;;;;6.85;4.55;;;21.80;52.80;;;;;;5030833;28;20079;-70
2021/08/17 14:00:18;;;;;;;5.40;4.35;;;21.70;54.80;;;;;;5031807;28;20037;-70
2021/08/17 14:02:43;;;;;;;4.63;4.13;;;21.60;54.80;;;;;;5031170;28;20075;-70
2021/08/17 14:05:10;;;;;;;6.20;4.57;;;21.70;54.60;;;;;;5030765;28;20029;-70
2021/08/17 14:07:35;;;;;;;5.25;4.10;;;21.80;54.80;;;;;;5031586;28;20026;-70
2021/08/17 14:10:01;;;;;;;11.05;4.60;;;21.80;55.50;;;;;;5020078;28;20026;-70
2021/08/17 14:12:27;;;;;;;8.32;4.25;;;21.80;54.90;;;;;;5011671;28;20064;-70
2021/08/17 14:14:52;;;;;;;9.55;4.57;;;21.80;54.60;;;;;;5010889;28;20433;-70